Time;durP1;ratioP1;P1;durP2;ratioP2;P2;SDS_P1;SDS_P2;PMS_P1;PMS_P2;Temp;Humidity;BMP_temperature;BMP_pressure;BME280_temperature;BME280_humidity;BME280_pressure;Samples;Min_cycle;Max_cycle;Signal;HPM_P1;HPM_P2
2021/06/29 00:04:31;;;;;;;8.60;7.75;;;22.40;67.80;;;;;;10417111;28;20056;-54
2021/06/29 00:09:33;;;;;;;9.30;8.50;;;22.40;67.70;;;;;;10416744;28;20057;-54
2021/06/29 00:14:33;;;;;;;8.32;7.53;;;22.40;67.70;;;;;;10416633;28;20167;-53
2021/06/29 00:19:34;;;;;;;8.40;7.70;;;22.40;67.70;;;;;;10416238;28;20371;-54
2021/06/29 00:24:35;;;;;;;9.13;8.27;;;22.40;67.70;;;;;;10416075;28;20030;-54
2021/06/29 00:29:35;;;;;;;7.72;7.03;;;22.40;67.80;;;;;;10416484;28;20389;-53
2021/06/29 00:34:36;;;;;;;9.25;8.38;;;22.40;67.80;;;;;;10415663;28;20029;-53
2021/06/29 00:39:37;;;;;;;8.93;8.13;;;22.30;67.70;;;;;;10430628;28;20132;-52
2021/06/29 00:44:38;;;;;;;7.95;7.18;;;22.40;67.80;;;;;;10415322;28;20548;-54
2021/06/29 00:49:39;;;;;;;8.05;7.32;;;22.40;67.70;;;;;;10415034;28;20030;-52
2021/06/29 00:54:41;;;;;;;8.57;7.78;;;22.40;67.60;;;;;;10415581;28;20037;-55
2021/06/29 00:59:42;;;;;;;8.82;7.88;;;22.40;67.60;;;;;;10423555;28;20026;-53
2021/06/29 01:04:43;;;;;;;9.00;8.20;;;22.40;67.70;;;;;;10414707;28;20025;-52
2021/06/29 01:09:44;;;;;;;8.30;7.60;;;22.30;67.70;;;;;;10412847;28;20105;-53
2021/06/29 01:14:45;;;;;;;7.88;7.18;;;22.30;67.70;;;;;;10414505;28;20171;-54
2021/06/29 01:19:47;;;;;;;8.18;7.47;;;22.40;67.80;;;;;;10409775;28;20033;-53
2021/06/29 01:24:52;;;;;;;8.30;7.50;;;22.30;67.70;;;;;;10414056;28;20025;-51
2021/06/29 01:34:55;;;;;;;8.43;7.72;;;22.30;67.70;;;;;;10413621;28;20448;-54
2021/06/29 01:40:02;;;;;;;9.73;8.00;;;22.40;67.80;;;;;;10413442;28;20119;-54
2021/06/29 01:45:05;;;;;;;8.90;8.10;;;22.30;67.70;;;;;;10413770;28;20147;-54
2021/06/29 01:50:15;;;;;;;8.23;7.43;;;22.30;67.70;;;;;;10407721;28;20037;-54
2021/06/29 01:55:16;;;;;;;8.63;7.88;;;22.30;67.70;;;;;;10405860;28;20026;-53
2021/06/29 02:00:18;;;;;;;7.90;7.18;;;22.30;67.70;;;;;;10422458;28;20037;-53
2021/06/29 02:05:18;;;;;;;8.65;7.85;;;22.30;67.70;;;;;;10410406;28;20079;-52
2021/06/29 02:10:19;;;;;;;9.38;8.50;;;22.30;67.80;;;;;;10413251;28;20068;-54
2021/06/29 02:15:20;;;;;;;9.90;9.00;;;22.30;67.90;;;;;;10413079;28;20037;-51
2021/06/29 02:20:21;;;;;;;8.68;7.88;;;22.30;67.90;;;;;;10417083;28;20072;-55
2021/06/29 02:25:22;;;;;;;8.75;7.95;;;22.30;67.80;;;;;;10420599;28;20025;-53
2021/06/29 02:30:23;;;;;;;9.00;8.20;;;22.30;67.80;;;;;;10419438;28;20401;-52
2021/06/29 02:35:24;;;;;;;8.55;7.75;;;22.30;67.80;;;;;;10420510;28;20526;-52
2021/06/29 02:40:24;;;;;;;9.05;8.25;;;22.30;67.80;;;;;;10420004;28;20120;-54
2021/06/29 02:45:26;;;;;;;10.05;7.47;;;22.30;67.80;;;;;;10420109;28;20101;-53
2021/06/29 02:50:27;;;;;;;8.70;7.90;;;22.30;67.90;;;;;;10413606;28;20037;-50
2021/06/29 02:55:27;;;;;;;8.55;7.75;;;22.30;67.90;;;;;;10413606;28;20036;-54
2021/06/29 03:00:28;;;;;;;7.90;7.20;;;22.30;68.00;;;;;;10428506;28;20041;-54
2021/06/29 03:05:29;;;;;;;8.18;7.38;;;22.30;68.10;;;;;;10419194;28;20079;-53
2021/06/29 03:10:30;;;;;;;9.05;8.15;;;22.30;68.00;;;;;;10419406;28;20048;-54
2021/06/29 03:15:31;;;;;;;9.00;8.18;;;22.30;68.00;;;;;;10418930;28;20112;-52
2021/06/29 03:20:34;;;;;;;8.38;7.57;;;22.30;67.90;;;;;;10418393;28;20075;-53
2021/06/29 03:25:35;;;;;;;8.38;7.57;;;22.30;68.10;;;;;;10418989;28;20471;-51
2021/06/29 03:30:35;;;;;;;8.45;7.65;;;22.30;68.10;;;;;;10417671;28;20113;-50
2021/06/29 03:35:37;;;;;;;9.35;7.68;;;22.30;68.10;;;;;;10417612;28;20363;-54
2021/06/29 03:40:37;;;;;;;8.10;7.30;;;22.30;68.10;;;;;;10417844;28;20072;-53
2021/06/29 03:45:38;;;;;;;8.57;7.75;;;22.30;68.10;;;;;;10415046;28;20327;-55
2021/06/29 03:50:39;;;;;;;8.75;7.95;;;22.30;68.10;;;;;;10408383;28;20071;-54
2021/06/29 03:55:40;;;;;;;8.82;7.40;;;22.30;68.00;;;;;;10413728;28;20104;-53
2021/06/29 04:00:41;;;;;;;8.15;7.40;;;22.30;68.00;;;;;;10426775;28;20534;-52
2021/06/29 04:05:41;;;;;;;8.60;7.80;;;22.30;68.10;;;;;;10418052;28;20033;-52
2021/06/29 04:10:42;;;;;;;8.13;7.40;;;22.30;68.10;;;;;;10417012;28;20021;-51
2021/06/29 04:15:43;;;;;;;8.38;7.55;;;22.30;68.20;;;;;;10415626;28;20025;-54
2021/06/29 04:20:43;;;;;;;8.73;7.93;;;22.20;68.10;;;;;;10416575;28;20108;-51
2021/06/29 04:25:44;;;;;;;9.07;8.20;;;22.30;68.30;;;;;;10416561;28;20084;-51
2021/06/29 04:30:45;;;;;;;9.57;8.70;;;22.30;68.30;;;;;;10416503;28;20060;-52
2021/06/29 04:35:46;;;;;;;8.52;7.72;;;22.20;68.20;;;;;;10416276;28;20036;-53
2021/06/29 04:40:47;;;;;;;9.07;8.18;;;22.20;68.30;;;;;;10415542;28;20052;-51
2021/06/29 04:45:47;;;;;;;9.80;8.88;;;22.30;68.30;;;;;;10415877;28;20101;-53
2021/06/29 04:50:48;;;;;;;8.23;7.43;;;22.20;68.30;;;;;;10415377;28;20025;-53
2021/06/29 04:55:49;;;;;;;8.65;7.63;;;22.30;68.30;;;;;;10415336;28;20565;-55
2021/06/29 05:00:50;;;;;;;7.85;7.05;;;22.20;68.20;;;;;;10424730;28;20025;-53
2021/06/29 05:05:51;;;;;;;7.97;7.20;;;22.20;68.20;;;;;;10415943;28;20037;-54
2021/06/29 05:10:51;;;;;;;7.93;7.13;;;22.20;68.20;;;;;;10415028;28;20231;-53
2021/06/29 05:15:52;;;;;;;7.88;7.07;;;22.20;68.30;;;;;;10414724;28;20029;-49
2021/06/29 05:20:54;;;;;;;8.70;7.90;;;22.20;68.40;;;;;;10414909;28;20104;-55
2021/06/29 05:25:55;;;;;;;8.52;7.72;;;22.20;68.40;;;;;;10414430;28;20075;-54
2021/06/29 05:30:55;;;;;;;8.73;7.93;;;22.20;68.30;;;;;;10414464;28;20052;-54
2021/06/29 05:35:56;;;;;;;8.48;7.75;;;22.20;68.30;;;;;;10414034;28;20049;-54
2021/06/29 05:40:57;;;;;;;8.07;7.28;;;22.20;68.20;;;;;;10414227;28;20114;-54
2021/06/29 05:45:58;;;;;;;8.25;7.45;;;22.20;68.20;;;;;;10414444;28;20059;-53
2021/06/29 05:50:59;;;;;;;8.38;7.68;;;22.30;68.30;;;;;;10414031;28;20021;-51
2021/06/29 05:56:00;;;;;;;8.35;7.50;;;22.20;68.20;;;;;;10420762;28;20037;-54
2021/06/29 06:01:01;;;;;;;8.23;7.35;;;22.20;68.30;;;;;;10431048;28;20040;-55
2021/06/29 06:06:02;;;;;;;8.30;7.60;;;22.20;68.30;;;;;;10422218;28;20065;-53
2021/06/29 06:11:03;;;;;;;8.70;7.80;;;22.20;68.40;;;;;;10413397;28;20025;-53
2021/06/29 06:16:05;;;;;;;8.73;7.82;;;22.20;68.20;;;;;;10421895;28;20449;-52
2021/06/29 06:21:06;;;;;;;8.55;7.75;;;22.20;68.00;;;;;;10420300;28;20472;-54
2021/06/29 06:26:07;;;;;;;8.57;7.78;;;22.20;68.00;;;;;;10421385;28;20079;-55
2021/06/29 06:31:07;;;;;;;7.82;7.13;;;22.20;68.10;;;;;;10421300;28;20116;-52
2021/06/29 06:36:09;;;;;;;9.40;8.50;;;22.20;68.20;;;;;;10419822;28;20025;-54
2021/06/29 06:41:14;;;;;;;8.75;7.95;;;22.20;68.30;;;;;;10420675;28;20033;-53
2021/06/29 06:46:15;;;;;;;9.27;8.38;;;22.30;68.30;;;;;;10420414;28;20076;-54
2021/06/29 06:51:17;;;;;;;9.07;8.18;;;22.20;68.30;;;;;;10406991;28;20104;-53
2021/06/29 06:56:18;;;;;;;8.20;7.47;;;22.20;68.40;;;;;;10420072;28;20029;-54
2021/06/29 07:01:19;;;;;;;9.68;8.20;;;22.20;68.30;;;;;;10429205;28;20026;-53
2021/06/29 07:06:19;;;;;;;8.18;7.38;;;22.20;68.20;;;;;;10420113;28;20069;-54
2021/06/29 07:11:20;;;;;;;8.60;7.90;;;22.20;68.20;;;;;;10419488;28;20029;-54
2021/06/29 07:16:21;;;;;;;8.70;7.80;;;22.20;68.20;;;;;;10419461;28;20525;-54
2021/06/29 07:21:26;;;;;;;9.13;8.23;;;22.20;68.10;;;;;;10419242;28;20033;-51
2021/06/29 07:26:27;;;;;;;9.85;8.95;;;22.20;68.20;;;;;;10418976;28;20034;-54
2021/06/29 07:31:28;;;;;;;8.52;7.78;;;22.20;68.30;;;;;;10418839;28;20108;-53
2021/06/29 07:36:28;;;;;;;7.93;7.22;;;22.20;68.20;;;;;;10418460;28;20045;-52
2021/06/29 07:41:29;;;;;;;8.77;7.97;;;22.20;68.20;;;;;;10418485;28;20486;-53
2021/06/29 07:46:30;;;;;;;9.45;8.50;;;22.20;68.20;;;;;;10408137;28;20442;-54
2021/06/29 07:51:32;;;;;;;8.65;7.72;;;22.20;68.10;;;;;;10404618;28;20358;-54
2021/06/29 07:56:37;;;;;;;8.57;7.75;;;22.20;67.90;;;;;;10418037;28;20104;-54
2021/06/29 08:01:37;;;;;;;7.90;7.13;;;22.20;68.00;;;;;;10409082;28;20026;-54
2021/06/29 08:06:38;;;;;;;8.32;7.53;;;22.20;68.10;;;;;;10417491;28;20025;-51
2021/06/29 08:11:39;;;;;;;8.63;7.82;;;22.20;68.10;;;;;;10417134;28;20057;-54
2021/06/29 08:16:42;;;;;;;8.65;7.85;;;22.20;68.10;;;;;;10415762;28;20069;-54
2021/06/29 08:21:43;;;;;;;8.80;8.00;;;22.20;68.00;;;;;;10416753;28;20100;-54
2021/06/29 08:26:44;;;;;;;8.50;7.32;;;22.20;68.20;;;;;;10416557;28;20080;-54
2021/06/29 08:31:45;;;;;;;8.10;7.32;;;22.20;68.20;;;;;;10416337;28;20084;-55
2021/06/29 08:36:45;;;;;;;9.80;8.80;;;22.30;68.10;;;;;;10415963;28;20084;-55
2021/06/29 08:41:46;;;;;;;8.38;7.50;;;22.20;68.30;;;;;;10415808;28;20162;-53
2021/06/29 08:46:47;;;;;;;7.63;6.93;;;22.20;68.30;;;;;;10415959;28;20021;-54
2021/06/29 08:51:51;;;;;;;8.77;7.97;;;22.20;68.10;;;;;;10415821;28;20025;-53
2021/06/29 08:56:52;;;;;;;9.10;8.20;;;22.20;68.20;;;;;;10417494;28;20069;-53
2021/06/29 09:01:52;;;;;;;7.70;6.97;;;22.20;68.20;;;;;;10422033;28;20087;-53
2021/06/29 09:06:53;;;;;;;8.13;7.32;;;22.20;68.20;;;;;;10415645;28;20099;-53
2021/06/29 09:11:57;;;;;;;10.32;7.80;;;22.20;68.10;;;;;;10415026;28;20055;-49
2021/06/29 09:17:16;;;;;;;7.70;6.90;;;22.20;68.10;;;;;;10400540;28;20159;-52
2021/06/29 09:22:28;;;;;;;;;;;22.20;67.80;;;;;;10415410;28;20044;-54
2021/06/29 09:27:47;;;;;;;8.52;7.72;;;22.20;67.80;;;;;;10412874;28;19920;-53
2021/06/29 09:32:49;;;;;;;8.20;7.40;;;22.20;67.90;;;;;;10414842;28;20026;-53
2021/06/29 09:37:50;;;;;;;10.48;9.48;;;22.20;68.20;;;;;;10413995;28;20407;-53
2021/06/29 09:42:52;;;;;;;10.38;9.38;;;22.30;68.50;;;;;;10414408;28;20096;-55
2021/06/29 09:47:53;;;;;;;10.63;9.60;;;22.30;68.50;;;;;;10413355;28;20025;-53
2021/06/29 09:52:54;;;;;;;8.75;7.95;;;22.30;68.50;;;;;;10414274;28;20033;-53
2021/06/29 09:58:08;;;;;;;8.57;7.65;;;22.30;68.50;;;;;;10422931;28;20060;-54
2021/06/29 10:03:20;;;;;;;8.15;7.35;;;22.30;68.50;;;;;;10413646;28;20061;-54
2021/06/29 10:08:25;;;;;;;10.35;9.35;;;22.30;68.40;;;;;;10413943;28;20094;-54
2021/06/29 10:13:26;;;;;;;11.25;9.32;;;22.30;68.60;;;;;;10413702;28;20029;-54
2021/06/29 10:18:31;;;;;;;8.30;7.50;;;22.30;68.60;;;;;;10413372;28;20030;-52
2021/06/29 10:23:32;;;;;;;10.07;9.18;;;22.30;68.50;;;;;;10413430;28;20025;-54
2021/06/29 10:28:34;;;;;;;10.48;9.48;;;22.30;68.50;;;;;;10401237;28;20087;-55
2021/06/29 10:33:36;;;;;;;9.32;8.43;;;22.30;68.50;;;;;;10413255;28;20061;-53
2021/06/29 10:38:37;;;;;;;9.95;8.82;;;22.30;68.50;;;;;;10412616;28;20037;-54
2021/06/29 10:43:38;;;;;;;10.13;9.00;;;22.30;68.50;;;;;;10419312;28;20402;-54
2021/06/29 10:48:41;;;;;;;9.88;8.93;;;22.30;68.50;;;;;;10420389;28;20042;-53
2021/06/29 10:53:46;;;;;;;9.98;8.98;;;22.30;68.50;;;;;;10419896;28;20053;-54
2021/06/29 10:58:51;;;;;;;9.65;8.65;;;22.30;68.60;;;;;;10429521;28;20033;-53
2021/06/29 11:03:57;;;;;;;8.75;7.85;;;22.30;68.50;;;;;;10419841;28;20104;-53
2021/06/29 11:08:59;;;;;;;9.20;8.02;;;22.40;68.60;;;;;;10419835;28;20025;-55
2021/06/29 11:14:00;;;;;;;9.52;8.63;;;22.40;68.60;;;;;;10407566;28;20120;-53
2021/06/29 11:19:01;;;;;;;9.05;8.13;;;22.40;68.60;;;;;;10419596;28;20029;-55
2021/06/29 11:24:43;;;;;;;10.23;9.20;;;22.40;68.60;;;;;;10419356;28;20433;-53
2021/06/29 11:29:44;;;;;;;9.25;8.32;;;22.40;68.60;;;;;;10417494;28;20486;-53
2021/06/29 11:34:45;;;;;;;9.55;8.65;;;22.40;68.50;;;;;;10418913;28;20462;-52
2021/06/29 11:39:57;;;;;;;9.48;8.30;;;22.50;68.50;;;;;;10417982;28;20106;-54
2021/06/29 11:45:04;;;;;;;9.60;8.70;;;22.50;68.50;;;;;;10418353;28;20482;-54
2021/06/29 11:50:18;;;;;;;9.65;8.70;;;22.50;68.50;;;;;;10413933;28;20181;-54
2021/06/29 11:55:19;;;;;;;9.32;8.30;;;22.50;68.50;;;;;;10410677;28;20037;-54
2021/06/29 12:00:35;;;;;;;9.98;9.02;;;22.50;68.50;;;;;;10427331;28;20377;-53
2021/06/29 12:05:37;;;;;;;9.00;8.05;;;22.50;68.50;;;;;;10417464;28;20394;-52
2021/06/29 12:10:47;;;;;;;10.05;9.05;;;22.60;68.60;;;;;;10417449;28;20029;-53
2021/06/29 12:15:54;;;;;;;9.15;8.20;;;22.50;68.50;;;;;;10417165;28;20144;-53
2021/06/29 12:21:05;;;;;;;9.23;8.43;;;22.50;68.50;;;;;;10408058;28;20064;-53
2021/06/29 12:26:09;;;;;;;8.93;8.00;;;22.60;68.60;;;;;;10416831;28;20482;-53
2021/06/29 12:31:13;;;;;;;9.23;8.32;;;22.60;68.60;;;;;;10402071;28;20454;-53
2021/06/29 12:36:25;;;;;;;9.43;8.48;;;22.60;68.50;;;;;;10416099;28;20049;-52
2021/06/29 12:41:30;;;;;;;9.45;8.55;;;22.60;68.50;;;;;;10416126;28;20041;-52
2021/06/29 12:46:40;;;;;;;8.77;7.88;;;22.60;68.50;;;;;;10416126;28;20162;-53
2021/06/29 12:52:01;;;;;;;9.00;8.20;;;22.70;68.50;;;;;;10415542;28;20087;-54
2021/06/29 12:57:10;;;;;;;8.50;7.68;;;22.70;68.50;;;;;;10419309;28;20374;-53
2021/06/29 13:02:19;;;;;;;8.75;7.85;;;22.70;68.50;;;;;;10419063;28;20040;-53
2021/06/29 13:07:20;;;;;;;8.00;7.25;;;22.70;68.40;;;;;;10415443;28;20493;-53
2021/06/29 13:12:28;;;;;;;8.95;8.10;;;22.60;68.50;;;;;;10402782;28;20040;-53
2021/06/29 13:17:29;;;;;;;8.77;7.97;;;22.70;68.40;;;;;;10413892;28;20061;-54
2021/06/29 13:22:43;;;;;;;9.02;8.23;;;22.70;68.40;;;;;;10413606;28;20056;-52
2021/06/29 13:27:43;;;;;;;8.93;8.02;;;22.70;68.40;;;;;;10414690;28;20036;-53
2021/06/29 13:32:50;;;;;;;9.07;8.27;;;22.70;68.40;;;;;;10414358;28;20033;-53
2021/06/29 13:37:59;;;;;;;8.38;7.57;;;22.70;68.40;;;;;;10412896;28;20501;-53
2021/06/29 13:43:15;;;;;;;9.00;8.10;;;22.70;68.40;;;;;;10414143;28;20033;-54
2021/06/29 13:48:36;;;;;;;8.70;7.80;;;22.70;68.40;;;;;;10414319;28;20034;-52
2021/06/29 13:53:37;;;;;;;9.13;8.00;;;22.70;68.40;;;;;;10412791;28;20029;-52
2021/06/29 13:58:38;;;;;;;8.75;7.95;;;22.70;68.40;;;;;;10423007;28;20040;-53
2021/06/29 14:03:41;;;;;;;8.30;7.50;;;22.70;68.30;;;;;;10410338;28;20021;-53
2021/06/29 14:08:46;;;;;;;9.25;8.35;;;22.70;68.30;;;;;;10413879;28;20061;-53
2021/06/29 14:13:57;;;;;;;8.52;7.63;;;22.80;68.40;;;;;;10415690;28;20044;-53
2021/06/29 14:18:58;;;;;;;9.68;7.90;;;22.80;68.40;;;;;;10421684;28;20029;-55
2021/06/29 14:24:02;;;;;;;8.63;7.82;;;22.80;68.40;;;;;;10421414;28;20482;-54
2021/06/29 14:29:04;;;;;;;9.48;8.45;;;22.80;68.40;;;;;;10421551;28;20581;-53
2021/06/29 14:34:04;;;;;;;7.70;6.90;;;22.80;68.40;;;;;;10421022;28;20040;-54
2021/06/29 14:39:05;;;;;;;8.35;7.45;;;22.80;68.30;;;;;;10420895;28;20044;-54
2021/06/29 14:44:06;;;;;;;7.90;7.10;;;22.80;68.30;;;;;;10421274;28;20113;-53
2021/06/29 14:49:07;;;;;;;7.53;6.75;;;22.80;68.30;;;;;;10419543;28;20022;-55
2021/06/29 14:54:08;;;;;;;8.43;7.40;;;22.80;68.20;;;;;;10407076;28;20493;-55
2021/06/29 14:59:08;;;;;;;7.78;7.07;;;22.80;68.20;;;;;;10429451;28;20485;-54
2021/06/29 15:04:09;;;;;;;7.85;6.50;;;22.80;68.20;;;;;;10420004;28;20061;-54
2021/06/29 15:09:10;;;;;;;8.35;7.45;;;22.80;68.20;;;;;;10419692;28;20057;-54
2021/06/29 15:14:10;;;;;;;8.30;7.50;;;22.80;68.70;;;;;;10419567;28;20417;-54
2021/06/29 15:19:11;;;;;;;8.27;7.47;;;22.80;68.10;;;;;;10419144;28;20091;-55
2021/06/29 15:24:12;;;;;;;7.55;6.85;;;22.80;68.10;;;;;;10419171;28;20026;-55
2021/06/29 15:29:17;;;;;;;8.05;7.05;;;22.80;68.10;;;;;;10418395;28;20124;-55
2021/06/29 15:34:17;;;;;;;7.57;6.80;;;22.80;68.00;;;;;;10419096;28;20022;-56
2021/06/29 15:39:18;;;;;;;8.10;6.88;;;22.80;68.00;;;;;;10418557;28;20067;-54
2021/06/29 15:44:19;;;;;;;7.90;7.10;;;22.80;68.00;;;;;;10415953;28;20029;-55
2021/06/29 15:49:19;;;;;;;8.20;7.35;;;22.80;68.00;;;;;;10416933;28;20075;-55
2021/06/29 15:54:20;;;;;;;8.10;7.35;;;22.80;68.00;;;;;;10405135;28;20052;-54
2021/06/29 15:59:21;;;;;;;7.38;6.68;;;22.80;67.90;;;;;;10426978;28;20034;-53
2021/06/29 16:04:22;;;;;;;7.13;6.50;;;22.80;67.90;;;;;;10417685;28;20022;-53
2021/06/29 16:09:22;;;;;;;7.85;7.15;;;22.80;67.80;;;;;;10417480;28;20037;-54
2021/06/29 16:14:23;;;;;;;7.68;6.90;;;22.80;67.80;;;;;;10417305;28;20049;-54
2021/06/29 16:19:25;;;;;;;6.80;6.20;;;22.80;67.80;;;;;;10417007;28;20430;-55
2021/06/29 16:24:26;;;;;;;7.28;6.57;;;22.80;67.70;;;;;;10417161;28;20032;-54
2021/06/29 16:29:26;;;;;;;7.68;6.88;;;22.80;67.70;;;;;;10416757;28;20070;-55
2021/06/29 16:34:27;;;;;;;6.72;6.03;;;22.70;67.60;;;;;;10416871;28;20438;-55
2021/06/29 16:39:28;;;;;;;7.10;6.40;;;22.80;67.60;;;;;;10415139;28;20077;-55
2021/06/29 16:44:29;;;;;;;6.88;6.18;;;22.70;67.50;;;;;;10416059;28;20070;-55
2021/06/29 16:49:32;;;;;;;6.18;5.57;;;22.70;67.50;;;;;;10416074;28;20064;-54
2021/06/29 16:54:32;;;;;;;6.70;5.95;;;22.80;67.50;;;;;;10416071;28;20055;-55
2021/06/29 16:59:33;;;;;;;6.45;5.85;;;22.70;67.50;;;;;;10423492;28;20043;-53
2021/06/29 17:04:34;;;;;;;6.55;5.68;;;22.70;67.40;;;;;;10415615;28;20428;-55
2021/06/29 17:09:35;;;;;;;6.93;6.22;;;22.70;67.40;;;;;;10415277;28;20100;-55
2021/06/29 17:14:35;;;;;;;8.23;6.30;;;22.70;67.30;;;;;;10415060;28;20060;-54
2021/06/29 17:19:36;;;;;;;6.72;5.85;;;22.70;67.30;;;;;;10414799;28;20026;-54
2021/06/29 17:24:37;;;;;;;7.03;6.32;;;22.70;67.30;;;;;;10414445;28;20030;-55
2021/06/29 17:29:38;;;;;;;6.38;5.78;;;22.70;67.20;;;;;;10414505;28;20022;-54
2021/06/29 17:34:38;;;;;;;6.65;5.97;;;22.70;67.20;;;;;;10414613;28;20120;-55
2021/06/29 17:39:39;;;;;;;6.50;5.90;;;22.70;67.10;;;;;;10413963;28;20045;-55
2021/06/29 17:44:42;;;;;;;6.13;5.53;;;22.70;67.10;;;;;;10414745;28;20485;-56
2021/06/29 17:49:42;;;;;;;6.15;5.55;;;22.70;67.10;;;;;;10412815;28;20486;-55
2021/06/29 17:54:43;;;;;;;6.20;5.60;;;22.70;67.00;;;;;;10400554;28;20025;-54
2021/06/29 17:59:44;;;;;;;5.93;5.38;;;22.70;67.00;;;;;;10423038;28;20029;-55
2021/06/29 18:04:46;;;;;;;5.60;5.10;;;22.70;67.00;;;;;;10413924;28;20521;-54
2021/06/29 18:09:48;;;;;;;5.75;4.88;;;22.70;67.00;;;;;;10413793;28;20375;-55
2021/06/29 18:14:53;;;;;;;5.72;5.22;;;22.70;67.00;;;;;;10414298;28;20040;-54
2021/06/29 18:19:53;;;;;;;5.43;4.93;;;22.70;67.00;;;;;;10413612;28;20378;-54
2021/06/29 18:24:54;;;;;;;5.93;5.43;;;22.70;66.90;;;;;;10413518;28;20061;-55
2021/06/29 18:29:55;;;;;;;5.97;4.82;;;22.60;66.80;;;;;;10413630;28;20116;-55
2021/06/29 18:34:55;;;;;;;5.53;4.80;;;22.70;66.90;;;;;;10413521;28;20065;-55
2021/06/29 18:39:56;;;;;;;5.95;5.25;;;22.60;66.70;;;;;;10400812;28;20044;-54
2021/06/29 18:44:57;;;;;;;5.60;5.10;;;22.60;66.80;;;;;;10413074;28;20116;-55
2021/06/29 18:49:57;;;;;;;5.25;4.75;;;22.60;66.70;;;;;;10410157;28;20028;-55
2021/06/29 18:54:58;;;;;;;5.50;4.80;;;22.60;66.70;;;;;;10402590;28;20253;-55
2021/06/29 19:00:01;;;;;;;5.55;5.05;;;22.60;66.60;;;;;;10422477;28;20088;-55
2021/06/29 19:05:03;;;;;;;4.93;4.43;;;22.60;66.60;;;;;;10420269;28;20478;-55
2021/06/29 19:10:06;;;;;;;5.07;4.60;;;22.60;66.60;;;;;;10419970;28;20124;-55
2021/06/29 19:15:14;;;;;;;6.53;4.93;;;22.60;66.60;;;;;;10419158;28;20398;-55
2021/06/29 19:20:18;;;;;;;5.60;5.00;;;22.60;66.50;;;;;;10404611;28;20034;-55
2021/06/29 19:25:19;;;;;;;4.60;4.18;;;22.60;66.40;;;;;;10419204;28;20034;-53
2021/06/29 19:30:21;;;;;;;4.97;4.47;;;22.60;66.40;;;;;;10418880;28;20037;-54
2021/06/29 19:35:21;;;;;;;4.95;4.45;;;22.60;66.40;;;;;;10419259;28;20029;-55
2021/06/29 19:40:22;;;;;;;5.05;4.30;;;22.60;66.40;;;;;;10418893;28;20054;-55
2021/06/29 19:45:23;;;;;;;4.22;3.83;;;22.60;66.40;;;;;;10418498;28;20466;-55
2021/06/29 19:50:24;;;;;;;4.68;4.25;;;22.60;66.40;;;;;;10411842;28;20030;-55
2021/06/29 19:55:27;;;;;;;4.63;3.70;;;22.60;66.40;;;;;;10411516;28;20473;-54
2021/06/29 20:00:29;;;;;;;5.90;4.63;;;22.60;66.30;;;;;;10427208;28;20109;-54
2021/06/29 20:05:29;;;;;;;5.63;4.28;;;22.50;66.20;;;;;;10417588;28;20026;-54
2021/06/29 20:10:30;;;;;;;4.65;4.15;;;22.60;66.20;;;;;;10403643;28;20112;-54
2021/06/29 20:15:31;;;;;;;4.90;4.20;;;22.50;66.20;;;;;;10417271;28;20041;-55
2021/06/29 20:20:31;;;;;;;5.10;4.15;;;22.60;66.20;;;;;;10416957;28;20497;-55
2021/06/29 20:25:32;;;;;;;5.35;3.85;;;22.50;66.10;;;;;;10415608;28;20132;-55
2021/06/29 20:30:33;;;;;;;4.13;3.63;;;22.50;66.10;;;;;;10416909;28;20033;-55
2021/06/29 20:35:34;;;;;;;4.28;3.88;;;22.50;66.20;;;;;;10416167;28;20034;-55
2021/06/29 20:40:37;;;;;;;4.45;3.97;;;22.50;66.20;;;;;;10415742;28;20139;-55
2021/06/29 20:45:38;;;;;;;5.75;4.00;;;22.50;66.10;;;;;;10415535;28;20025;-54
2021/06/29 20:50:38;;;;;;;4.18;3.28;;;22.50;66.10;;;;;;10405848;28;20568;-54
2021/06/29 20:55:40;;;;;;;4.15;3.75;;;22.50;66.00;;;;;;10410820;28;20112;-55
2021/06/29 21:00:40;;;;;;;3.95;3.55;;;22.50;66.00;;;;;;10424630;28;20075;-55
2021/06/29 21:05:41;;;;;;;3.40;3.10;;;22.50;66.00;;;;;;10414987;28;20546;-54
2021/06/29 21:10:42;;;;;;;3.92;3.50;;;22.50;66.00;;;;;;10415164;28;20079;-53
2021/06/29 21:15:43;;;;;;;4.25;3.55;;;22.50;66.00;;;;;;10414587;28;20112;-53
2021/06/29 21:20:43;;;;;;;4.43;3.50;;;22.50;66.60;;;;;;10414259;28;20044;-53
2021/06/29 21:25:44;;;;;;;4.30;3.53;;;22.50;66.10;;;;;;10429182;28;20120;-53
2021/06/29 21:30:45;;;;;;;3.60;3.28;;;22.50;66.00;;;;;;10414095;28;20381;-54
2021/06/29 21:35:45;;;;;;;3.55;3.10;;;22.50;66.00;;;;;;10414213;28;20486;-53
2021/06/29 21:40:46;;;;;;;3.40;3.10;;;22.50;66.10;;;;;;10408617;28;20145;-54
2021/06/29 21:45:47;;;;;;;3.97;3.33;;;22.50;66.00;;;;;;10413801;28;20068;-52
2021/06/29 21:50:48;;;;;;;3.40;3.10;;;22.40;66.00;;;;;;10404188;28;20137;-53
2021/06/29 21:55:49;;;;;;;4.75;3.45;;;22.40;66.00;;;;;;10410754;28;20095;-55
2021/06/29 22:00:49;;;;;;;3.88;3.45;;;22.50;66.10;;;;;;10422675;28;20613;-54
2021/06/29 22:05:50;;;;;;;3.50;2.90;;;22.50;66.10;;;;;;10413243;28;20485;-53
2021/06/29 22:10:51;;;;;;;4.22;3.33;;;22.50;66.10;;;;;;10413116;28;20067;-53
2021/06/29 22:15:52;;;;;;;3.70;2.92;;;22.40;66.10;;;;;;10413564;28;20022;-53
2021/06/29 22:20:55;;;;;;;4.00;3.38;;;22.40;66.20;;;;;;10413093;28;20021;-53
2021/06/29 22:25:56;;;;;;;3.80;3.03;;;22.40;66.20;;;;;;10413550;28;20131;-53
2021/06/29 22:30:57;;;;;;;3.83;3.40;;;22.40;66.30;;;;;;10412922;28;20086;-52
2021/06/29 22:35:58;;;;;;;3.80;3.13;;;22.40;66.20;;;;;;10414574;28;20041;-53
2021/06/29 22:40:59;;;;;;;3.70;3.10;;;22.40;66.20;;;;;;10420479;28;20433;-55
2021/06/29 22:46:00;;;;;;;3.10;2.80;;;22.40;66.20;;;;;;10420273;28;20032;-54
2021/06/29 22:51:01;;;;;;;2.92;2.63;;;22.40;66.20;;;;;;10420517;28;20079;-54
2021/06/29 22:56:01;;;;;;;3.58;3.13;;;22.40;66.20;;;;;;10419935;28;20129;-53
2021/06/29 23:01:02;;;;;;;3.78;2.80;;;22.40;66.20;;;;;;10428701;28;20087;-54
2021/06/29 23:06:03;;;;;;;2.35;2.10;;;22.40;66.20;;;;;;10420097;28;20021;-55
2021/06/29 23:11:05;;;;;;;3.55;2.30;;;22.40;66.20;;;;;;10419232;28;20550;-54
2021/06/29 23:16:06;;;;;;;3.10;2.78;;;22.40;66.20;;;;;;10419191;28;20026;-55
2021/06/29 23:21:06;;;;;;;4.63;2.80;;;22.40;66.30;;;;;;10418785;28;20060;-54
2021/06/29 23:26:07;;;;;;;3.55;2.50;;;22.40;66.90;;;;;;10419097;28;20474;-54
2021/06/29 23:31:08;;;;;;;3.28;2.67;;;22.40;66.20;;;;;;10418671;28;20057;-53
2021/06/29 23:36:08;;;;;;;3.00;2.22;;;22.30;66.10;;;;;;10418238;28;20188;-55
2021/06/29 23:41:09;;;;;;;3.28;2.70;;;22.30;66.20;;;;;;10433565;28;20033;-55
2021/06/29 23:46:10;;;;;;;3.00;2.38;;;22.30;66.10;;;;;;10417445;28;20096;-55
2021/06/29 23:51:12;;;;;;;2.97;2.40;;;22.30;66.10;;;;;;10417788;28;20484;-53
2021/06/29 23:56:12;;;;;;;2.83;2.33;;;22.30;66.10;;;;;;10417616;28;20030;-55
